Time;durP1;ratioP1;P1;durP2;ratioP2;P2;SDS_P1;SDS_P2;PMS_P1;PMS_P2;Temp;Humidity;BMP_temperature;BMP_pressure;BME280_temperature;BME280_humidity;BME280_pressure;Samples;Min_cycle;Max_cycle;Signal;HPM_P1;HPM_P2
2022/08/25 00:00:19;;;;;;;16.92;13.20;;;;;;;;;;5052523;28;20465;-64
2022/08/25 00:02:45;;;;;;;18.45;13.23;;;;;;;;;;5052631;28;20036;-64
2022/08/25 00:05:11;;;;;;;21.05;12.88;;;;;;;;;;5052609;28;20028;-64
2022/08/25 00:07:37;;;;;;;21.52;13.60;;;;;;;;;;5051043;28;20025;-64
2022/08/25 00:10:04;;;;;;;17.58;12.80;;;;;;;;;;5052314;28;20501;-64
2022/08/25 00:12:30;;;;;;;16.67;12.77;;;;;;;;;;5051271;28;20025;-64
2022/08/25 00:14:56;;;;;;;19.00;12.88;;;;;;;;;;5052389;28;20025;-64
2022/08/25 00:17:22;;;;;;;16.90;12.93;;;;;;;;;;5051537;28;20496;-64
2022/08/25 00:19:48;;;;;;;18.08;12.73;;;;;;;;;;5052133;28;20116;-65
2022/08/25 00:22:14;;;;;;;16.15;12.65;;;;;;;;;;5052393;28;20044;-64
2022/08/25 00:24:40;;;;;;;18.65;13.10;;;;;;;;;;5051185;28;20465;-65
2022/08/25 00:27:06;;;;;;;18.77;13.23;;;;;;;;;;5051941;28;20074;-65
2022/08/25 00:29:33;;;;;;;17.33;12.95;;;;;;;;;;5051627;28;20393;-64
2022/08/25 00:31:59;;;;;;;17.55;12.90;;;;;;;;;;5052082;28;20029;-64
2022/08/25 00:34:28;;;;;;;20.15;11.90;;;;;;;;;;5051116;28;20253;-64
2022/08/25 00:36:54;;;;;;;19.98;12.80;;;;;;;;;;5052083;28;20053;-65
2022/08/25 00:39:21;;;;;;;20.13;12.93;;;;;;;;;;5050198;28;20056;-65
2022/08/25 00:41:48;;;;;;;17.33;12.52;;;;;;;;;;5052266;28;20044;-64
2022/08/25 00:44:17;;;;;;;19.40;12.98;;;;;;;;;;5051948;28;20028;-64
2022/08/25 00:46:43;;;;;;;;;;;;;;;;;;5051140;28;20021;-64
2022/08/25 00:49:11;;;;;;;16.70;13.02;;;;;;;;;;5051334;28;19905;-65
2022/08/25 00:51:42;;;;;;;29.90;13.43;;;;;;;;;;5052171;28;20087;-64
2022/08/25 00:54:11;;;;;;;18.27;13.20;;;;;;;;;;5052150;28;20027;-64
2022/08/25 00:56:37;;;;;;;17.90;13.40;;;;;;;;;;5051781;28;20033;-65
2022/08/25 00:59:04;;;;;;;17.27;13.07;;;;;;;;;;5050541;28;20032;-65
2022/08/25 01:01:30;;;;;;;16.97;13.37;;;;;;;;;;5051883;28;20025;-65
2022/08/25 01:03:56;;;;;;;18.70;13.73;;;;;;;;;;5051820;28;20052;-64
2022/08/25 01:06:23;;;;;;;20.15;13.45;;;;;;;;;;5051837;28;20075;-65
2022/08/25 01:08:49;;;;;;;17.38;13.00;;;;;;;;;;5051204;28;20033;-64
2022/08/25 01:11:15;;;;;;;17.67;13.30;;;;;;;;;;5051982;28;20025;-64
2022/08/25 01:13:44;;;;;;;17.70;13.52;;;;;;;;;;5051913;28;20025;-64
2022/08/25 01:16:10;;;;;;;17.48;12.98;;;;;;;;;;5051805;28;20075;-65
2022/08/25 01:18:51;;;;;;;18.83;13.30;;;;;;;;;;5051012;28;20032;-64
2022/08/25 01:21:18;;;;;;;19.02;13.63;;;;;;;;;;5052404;28;20029;-65
2022/08/25 01:23:45;;;;;;;21.63;13.37;;;;;;;;;;5052342;28;20094;-65
2022/08/25 01:26:14;;;;;;;18.67;13.38;;;;;;;;;;5052257;28;20472;-65
2022/08/25 01:29:19;;;;;;;18.48;13.45;;;;;;;;;;5051404;28;20127;-65
2022/08/25 01:31:28;;;;;;;17.75;13.30;;;;;;;;;;5051723;28;20079;-64
2022/08/25 01:33:54;;;;;;;19.33;13.80;;;;;;;;;;5051890;28;20029;-64
2022/08/25 01:36:21;;;;;;;16.65;12.82;;;;;;;;;;5051405;28;20025;-64
2022/08/25 01:38:47;;;;;;;17.08;13.50;;;;;;;;;;5050746;28;20377;-64
2022/08/25 01:41:15;;;;;;;18.40;13.40;;;;;;;;;;5051617;28;20023;-63
2022/08/25 01:43:41;;;;;;;;;;;;;;;;;;5052129;28;20036;-64
2022/08/25 01:46:07;;;;;;;17.45;13.70;;;;;;;;;;5055072;28;19904;-63
2022/08/25 01:48:33;;;;;;;17.77;12.75;;;;;;;;;;5054451;28;20017;-64
2022/08/25 01:50:59;;;;;;;17.75;13.63;;;;;;;;;;5055277;28;20025;-64
2022/08/25 01:53:30;;;;;;;16.75;13.02;;;;;;;;;;5053949;28;20056;-63
2022/08/25 01:56:05;;;;;;;20.50;13.77;;;;;;;;;;5055387;28;20037;-64
2022/08/25 01:58:32;;;;;;;16.58;13.25;;;;;;;;;;5054387;28;20036;-64
2022/08/25 02:01:00;;;;;;;17.88;13.70;;;;;;;;;;5054464;28;20466;-64
2022/08/25 02:03:27;;;;;;;17.92;13.55;;;;;;;;;;5054621;28;20599;-63
2022/08/25 02:05:53;;;;;;;16.35;13.07;;;;;;;;;;5054480;28;20040;-63
2022/08/25 02:08:21;;;;;;;18.35;13.73;;;;;;;;;;5053767;28;20392;-63
2022/08/25 02:10:47;;;;;;;17.02;13.07;;;;;;;;;;5054292;28;20017;-63
2022/08/25 02:13:13;;;;;;;20.23;13.93;;;;;;;;;;5054590;28;20056;-63
2022/08/25 02:15:40;;;;;;;17.38;13.63;;;;;;;;;;5054342;28;20477;-63
2022/08/25 02:18:07;;;;;;;17.10;13.47;;;;;;;;;;5052322;28;20040;-64
2022/08/25 02:20:33;;;;;;;16.75;13.50;;;;;;;;;;5054499;28;20329;-63
2022/08/25 02:22:58;;;;;;;16.73;13.15;;;;;;;;;;5054776;28;20021;-64
2022/08/25 02:25:25;;;;;;;18.33;13.60;;;;;;;;;;5054555;28;20493;-64
2022/08/25 02:27:51;;;;;;;17.55;13.20;;;;;;;;;;5053623;28;20028;-65
2022/08/25 02:30:17;;;;;;;17.95;13.25;;;;;;;;;;5054563;28;20024;-65
2022/08/25 02:32:43;;;;;;;17.48;13.35;;;;;;;;;;5054581;28;20029;-65
2022/08/25 02:35:09;;;;;;;17.13;13.55;;;;;;;;;;5054492;28;20031;-64
2022/08/25 02:37:35;;;;;;;16.92;13.73;;;;;;;;;;5053616;28;20136;-65
2022/08/25 02:40:01;;;;;;;17.00;13.07;;;;;;;;;;5053910;28;20420;-64
2022/08/25 02:42:28;;;;;;;18.08;13.48;;;;;;;;;;5054130;28;20021;-64
2022/08/25 02:44:54;;;;;;;19.27;13.88;;;;;;;;;;5052625;28;20416;-64
2022/08/25 02:47:21;;;;;;;18.83;13.65;;;;;;;;;;5052833;28;20021;-64
2022/08/25 02:49:47;;;;;;;18.67;13.43;;;;;;;;;;5053806;28;20036;-65
2022/08/25 02:52:13;;;;;;;18.60;13.45;;;;;;;;;;5054080;28;20477;-64
2022/08/25 02:54:39;;;;;;;17.27;13.63;;;;;;;;;;5053584;28;20132;-65
2022/08/25 02:57:06;;;;;;;19.08;13.30;;;;;;;;;;5053460;28;20090;-65
2022/08/25 02:59:32;;;;;;;18.95;13.88;;;;;;;;;;5053048;28;20025;-64
2022/08/25 03:01:58;;;;;;;18.13;13.80;;;;;;;;;;5053821;28;20033;-64
2022/08/25 03:04:24;;;;;;;20.70;13.95;;;;;;;;;;5053756;28;20059;-64
2022/08/25 03:06:50;;;;;;;18.05;14.05;;;;;;;;;;5053999;28;20025;-64
2022/08/25 03:09:16;;;;;;;17.70;13.15;;;;;;;;;;5052574;28;20032;-64
2022/08/25 03:11:42;;;;;;;18.48;13.05;;;;;;;;;;5053552;28;20036;-64
2022/08/25 03:14:09;;;;;;;17.85;13.73;;;;;;;;;;5053694;28;20393;-64
2022/08/25 03:16:36;;;;;;;17.40;13.63;;;;;;;;;;5053343;28;20066;-64
2022/08/25 03:19:02;;;;;;;18.85;13.95;;;;;;;;;;5053206;28;20370;-64
2022/08/25 03:21:29;;;;;;;17.25;13.63;;;;;;;;;;5053426;28;20025;-64
2022/08/25 03:23:55;;;;;;;18.75;13.63;;;;;;;;;;5052093;28;20047;-64
2022/08/25 03:29:07;;;;;;;19.15;14.20;;;;;;;;;;5053135;28;20043;-64
2022/08/25 03:31:33;;;;;;;22.23;14.05;;;;;;;;;;5053251;28;20036;-64
2022/08/25 03:34:00;;;;;;;17.45;13.45;;;;;;;;;;5053256;28;20021;-64
2022/08/25 03:36:26;;;;;;;19.08;14.07;;;;;;;;;;5053148;28;20029;-64
2022/08/25 03:38:53;;;;;;;18.77;13.43;;;;;;;;;;5052546;28;20043;-64
2022/08/25 03:41:20;;;;;;;18.08;13.75;;;;;;;;;;5051110;28;20028;-65
2022/08/25 03:43:47;;;;;;;19.35;13.98;;;;;;;;;;5053067;28;20025;-64
2022/08/25 03:46:17;;;;;;;18.85;14.23;;;;;;;;;;5052916;28;20483;-64
2022/08/25 03:48:43;;;;;;;17.98;14.27;;;;;;;;;;5052627;28;20023;-64
2022/08/25 03:51:09;;;;;;;20.02;14.25;;;;;;;;;;5052788;28;20465;-64
2022/08/25 03:53:35;;;;;;;20.23;14.00;;;;;;;;;;5052927;28;20029;-65
2022/08/25 03:56:01;;;;;;;18.92;14.20;;;;;;;;;;5058768;28;20025;-64
2022/08/25 03:58:27;;;;;;;20.92;14.82;;;;;;;;;;5062846;28;20029;-64
2022/08/25 04:00:55;;;;;;;20.35;14.82;;;;;;;;;;5055846;28;20032;-64
2022/08/25 04:03:21;;;;;;;18.83;14.83;;;;;;;;;;5052508;28;20031;-64
2022/08/25 04:05:47;;;;;;;18.52;15.13;;;;;;;;;;5052679;28;20021;-68
2022/08/25 04:08:13;;;;;;;21.20;14.70;;;;;;;;;;5051648;28;20032;-65
2022/08/25 04:10:39;;;;;;;20.30;15.25;;;;;;;;;;5052461;28;20400;-65
2022/08/25 04:13:06;;;;;;;20.33;15.45;;;;;;;;;;5051216;28;20021;-64
2022/08/25 04:15:32;;;;;;;20.08;14.38;;;;;;;;;;5052393;28;20100;-64
2022/08/25 04:17:58;;;;;;;21.10;15.52;;;;;;;;;;5050703;28;20017;-64
2022/08/25 04:20:24;;;;;;;17.48;14.60;;;;;;;;;;5050881;28;20029;-65
2022/08/25 04:22:50;;;;;;;21.40;15.90;;;;;;;;;;5052437;28;20025;-64
2022/08/25 04:25:16;;;;;;;19.80;16.15;;;;;;;;;;5051080;28;20171;-65
2022/08/25 04:27:42;;;;;;;20.02;16.70;;;;;;;;;;5051295;28;20029;-65
2022/08/25 04:30:09;;;;;;;22.25;15.40;;;;;;;;;;5052144;28;20485;-65
2022/08/25 04:32:36;;;;;;;21.10;15.63;;;;;;;;;;5052339;28;20024;-64
2022/08/25 04:35:03;;;;;;;25.40;16.23;;;;;;;;;;5052234;28;20017;-64
2022/08/25 04:37:29;;;;;;;22.40;15.73;;;;;;;;;;5052184;28;20079;-65
2022/08/25 04:39:56;;;;;;;20.30;16.05;;;;;;;;;;5051989;28;20033;-65
2022/08/25 04:42:21;;;;;;;19.60;15.38;;;;;;;;;;5050964;28;20444;-65
2022/08/25 04:44:48;;;;;;;25.95;18.00;;;;;;;;;;5052084;28;20059;-64
2022/08/25 04:47:14;;;;;;;18.15;15.50;;;;;;;;;;5050571;28;20021;-63
2022/08/25 04:49:41;;;;;;;18.67;15.57;;;;;;;;;;5051972;28;20029;-65
2022/08/25 04:52:07;;;;;;;18.15;15.45;;;;;;;;;;5058267;28;20443;-65
2022/08/25 04:54:33;;;;;;;19.38;15.27;;;;;;;;;;5061244;28;20143;-65
2022/08/25 04:56:59;;;;;;;22.45;17.25;;;;;;;;;;5052393;28;20036;-65
2022/08/25 04:59:25;;;;;;;22.30;17.70;;;;;;;;;;5050886;28;20075;-65
2022/08/25 05:01:52;;;;;;;23.08;17.83;;;;;;;;;;5071661;28;20021;-65
2022/08/25 05:04:20;;;;;;;22.00;16.45;;;;;;;;;;5071835;28;20046;-64
2022/08/25 05:06:46;;;;;;;20.52;14.77;;;;;;;;;;5070416;28;20043;-65
2022/08/25 05:09:12;;;;;;;20.25;15.25;;;;;;;;;;5060587;28;20029;-65
2022/08/25 05:11:38;;;;;;;19.20;14.80;;;;;;;;;;5051486;28;20040;-65
2022/08/25 05:14:10;;;;;;;25.38;18.63;;;;;;;;;;5051310;28;20032;-65
2022/08/25 05:16:36;;;;;;;23.02;17.70;;;;;;;;;;5051397;28;20079;-65
2022/08/25 05:19:03;;;;;;;20.15;15.75;;;;;;;;;;5053137;28;20041;-64
2022/08/25 05:21:29;;;;;;;20.15;16.15;;;;;;;;;;5056261;28;20069;-65
2022/08/25 05:23:56;;;;;;;23.70;15.90;;;;;;;;;;5056331;28;20067;-64
2022/08/25 05:26:23;;;;;;;21.00;16.20;;;;;;;;;;5067247;28;20025;-65
2022/08/25 05:28:49;;;;;;;21.20;18.00;;;;;;;;;;5074807;28;20082;-68
2022/08/25 05:31:16;;;;;;;21.55;16.05;;;;;;;;;;5075086;28;20024;-65
2022/08/25 05:33:42;;;;;;;20.25;16.58;;;;;;;;;;5075327;28;20048;-65
2022/08/25 05:36:08;;;;;;;23.33;16.83;;;;;;;;;;5074885;28;20499;-65
2022/08/25 05:38:35;;;;;;;20.08;16.00;;;;;;;;;;5074855;28;20082;-66
2022/08/25 05:41:02;;;;;;;22.38;16.95;;;;;;;;;;5073097;28;20028;-65
2022/08/25 05:43:29;;;;;;;20.88;15.10;;;;;;;;;;5074845;28;20472;-65
2022/08/25 05:45:56;;;;;;;22.77;15.52;;;;;;;;;;5075298;28;20680;-65
2022/08/25 05:48:23;;;;;;;19.55;15.85;;;;;;;;;;5074907;28;20027;-65
2022/08/25 05:50:52;;;;;;;18.25;15.38;;;;;;;;;;5074723;28;20124;-66
2022/08/25 05:53:19;;;;;;;22.60;16.10;;;;;;;;;;5063315;28;20044;-65
2022/08/25 05:55:45;;;;;;;24.63;16.38;;;;;;;;;;5054602;28;20024;-66
2022/08/25 05:58:11;;;;;;;21.35;15.65;;;;;;;;;;5085749;23;20048;-66
2022/08/25 06:00:37;;;;;;;22.83;16.10;;;;;;;;;;5073858;28;20370;-66
2022/08/25 06:03:03;;;;;;;28.30;16.02;;;;;;;;;;5078535;28;20031;-67
2022/08/25 06:05:31;;;;;;;29.40;16.95;;;;;;;;;;5075613;28;20035;-67
2022/08/25 06:07:57;;;;;;;28.35;16.58;;;;;;;;;;5082870;28;20031;-67
2022/08/25 06:10:24;;;;;;;26.88;16.50;;;;;;;;;;5073676;28;20067;-67
2022/08/25 06:12:50;;;;;;;24.60;16.60;;;;;;;;;;5055661;28;20020;-69
2022/08/25 06:15:18;;;;;;;25.35;16.55;;;;;;;;;;5073931;28;20112;-67
2022/08/25 06:17:44;;;;;;;21.63;16.10;;;;;;;;;;5073002;28;20020;-67
2022/08/25 06:20:12;;;;;;;23.50;16.45;;;;;;;;;;5075379;28;20583;-67
2022/08/25 06:22:39;;;;;;;24.55;16.42;;;;;;;;;;5073813;28;20027;-68
2022/08/25 06:25:05;;;;;;;22.00;16.17;;;;;;;;;;5073908;28;20039;-67
2022/08/25 06:27:31;;;;;;;21.38;16.13;;;;;;;;;;5055330;28;20017;-69
2022/08/25 06:29:57;;;;;;;22.05;16.15;;;;;;;;;;5072979;28;20028;-68
2022/08/25 06:32:24;;;;;;;22.25;16.52;;;;;;;;;;5055358;28;20028;-68
2022/08/25 06:34:50;;;;;;;19.23;16.10;;;;;;;;;;5073178;28;20404;-68
2022/08/25 06:37:16;;;;;;;24.05;16.90;;;;;;;;;;5055256;28;20127;-68
2022/08/25 06:39:42;;;;;;;20.27;16.08;;;;;;;;;;5073455;28;20071;-69
2022/08/25 06:42:09;;;;;;;27.77;17.27;;;;;;;;;;5073045;28;20025;-67
2022/08/25 06:44:35;;;;;;;23.70;17.42;;;;;;;;;;5055508;28;20027;-68
2022/08/25 06:47:01;;;;;;;22.33;16.52;;;;;;;;;;5073357;28;20173;-68
2022/08/25 06:49:27;;;;;;;21.45;16.00;;;;;;;;;;5072841;28;20513;-68
2022/08/25 06:51:53;;;;;;;21.92;16.02;;;;;;;;;;5072876;28;20028;-68
2022/08/25 06:54:19;;;;;;;24.90;16.92;;;;;;;;;;5055069;28;20400;-68
2022/08/25 06:56:46;;;;;;;22.77;16.58;;;;;;;;;;5072613;28;20024;-69
2022/08/25 06:59:12;;;;;;;21.77;16.75;;;;;;;;;;5072428;28;20094;-68
2022/08/25 07:01:38;;;;;;;23.25;16.48;;;;;;;;;;5072968;28;20031;-68
2022/08/25 07:04:05;;;;;;;24.38;16.83;;;;;;;;;;5073111;28;20043;-68
2022/08/25 07:06:34;;;;;;;21.58;16.05;;;;;;;;;;5072355;28;20501;-73
2022/08/25 07:09:00;;;;;;;;;;;;;;;;;;5054833;28;20480;-68
2022/08/25 07:11:26;;;;;;;21.30;16.23;;;;;;;;;;5072743;28;20368;-69
2022/08/25 07:13:52;;;;;;;24.60;17.30;;;;;;;;;;5072618;28;20055;-68
2022/08/25 07:16:19;;;;;;;19.23;16.48;;;;;;;;;;5072693;28;20090;-69
2022/08/25 07:18:46;;;;;;;25.27;16.00;;;;;;;;;;5072414;28;20591;-69
2022/08/25 07:21:12;;;;;;;21.02;17.00;;;;;;;;;;5055038;28;20039;-68
2022/08/25 07:23:39;;;;;;;25.00;17.65;;;;;;;;;;5073208;28;20021;-70
2022/08/25 07:26:12;;;;;;;24.15;17.83;;;;;;;;;;5055133;28;20025;-68
2022/08/25 07:28:39;;;;;;;23.40;17.13;;;;;;;;;;5072787;28;20028;-68
2022/08/25 07:31:05;;;;;;;21.88;16.23;;;;;;;;;;5072729;28;20024;-68
2022/08/25 07:33:31;;;;;;;23.05;17.00;;;;;;;;;;5054812;28;20076;-68
2022/08/25 07:35:57;;;;;;;24.70;16.70;;;;;;;;;;5072398;28;20697;-68
2022/08/25 07:38:23;;;;;;;23.13;17.33;;;;;;;;;;5071652;28;20021;-69
2022/08/25 07:40:53;;;;;;;24.42;17.15;;;;;;;;;;5072055;28;20023;-69
2022/08/25 07:43:20;;;;;;;24.10;17.13;;;;;;;;;;5071377;28;20021;-69
2022/08/25 07:45:47;;;;;;;25.52;18.00;;;;;;;;;;5054499;28;20065;-69
2022/08/25 07:48:13;;;;;;;21.05;17.00;;;;;;;;;;5071194;28;20107;-68
2022/08/25 07:50:46;;;;;;;21.23;16.52;;;;;;;;;;5071507;28;20021;-68
2022/08/25 07:53:13;;;;;;;21.83;17.02;;;;;;;;;;5071598;28;20027;-62
2022/08/25 07:55:40;;;;;;;22.38;16.80;;;;;;;;;;5071943;28;20024;-63
2022/08/25 07:58:07;;;;;;;21.23;16.52;;;;;;;;;;5071407;28;20028;-63
2022/08/25 08:00:35;;;;;;;23.15;17.27;;;;;;;;;;5071633;28;20107;-63
2022/08/25 08:03:03;;;;;;;22.42;16.23;;;;;;;;;;5071815;28;20025;-63
2022/08/25 08:05:29;;;;;;;21.63;17.05;;;;;;;;;;5071686;28;20020;-62
2022/08/25 08:07:55;;;;;;;21.20;16.80;;;;;;;;;;5071259;28;20043;-66
2022/08/25 08:10:21;;;;;;;21.20;16.92;;;;;;;;;;5071674;28;20032;-67
2022/08/25 08:12:48;;;;;;;21.73;17.02;;;;;;;;;;5071477;28;20101;-66
2022/08/25 08:15:14;;;;;;;21.50;17.20;;;;;;;;;;5071604;28;20020;-67
2022/08/25 08:17:40;;;;;;;21.88;17.05;;;;;;;;;;5071426;28;20070;-64
2022/08/25 08:20:08;;;;;;;21.05;17.40;;;;;;;;;;5071509;28;20094;-64
2022/08/25 08:22:35;;;;;;;31.15;17.65;;;;;;;;;;5071628;28;20031;-65
2022/08/25 08:25:01;;;;;;;23.05;16.80;;;;;;;;;;5071583;28;20020;-65
2022/08/25 08:27:27;;;;;;;22.83;16.25;;;;;;;;;;5071161;28;20485;-65
2022/08/25 08:29:53;;;;;;;20.55;16.23;;;;;;;;;;5053284;28;20071;-65
2022/08/25 08:32:20;;;;;;;19.38;16.30;;;;;;;;;;5071337;28;20451;-65
2022/08/25 08:34:46;;;;;;;21.63;16.42;;;;;;;;;;5070956;28;20492;-63
2022/08/25 08:37:13;;;;;;;19.00;15.93;;;;;;;;;;5052889;28;20116;-63
2022/08/25 08:39:39;;;;;;;21.80;16.73;;;;;;;;;;5053367;28;20025;-64
2022/08/25 08:42:17;;;;;;;21.63;17.08;;;;;;;;;;5070971;28;20021;-64
2022/08/25 08:44:48;;;;;;;28.23;17.88;;;;;;;;;;5071120;28;20438;-64
2022/08/25 08:47:33;;;;;;;21.17;17.17;;;;;;;;;;5052554;28;20098;-63
2022/08/25 08:50:05;;;;;;;20.65;17.17;;;;;;;;;;5053335;28;20033;-64
2022/08/25 08:52:37;;;;;;;19.00;16.67;;;;;;;;;;5070966;28;20028;-64
2022/08/25 08:55:07;;;;;;;20.80;17.10;;;;;;;;;;5074937;28;20027;-65
2022/08/25 08:57:35;;;;;;;19.63;16.75;;;;;;;;;;5074877;28;20093;-64
2022/08/25 09:00:01;;;;;;;23.63;17.30;;;;;;;;;;5075108;28;20485;-65
2022/08/25 09:02:34;;;;;;;22.08;17.08;;;;;;;;;;5074937;28;20047;-65
2022/08/25 09:05:13;;;;;;;50.78;28.42;;;;;;;;;;5074750;28;20024;-65
2022/08/25 09:07:42;;;;;;;22.17;17.35;;;;;;;;;;5074761;28;20090;-67
2022/08/25 09:10:09;;;;;;;19.67;17.13;;;;;;;;;;5075374;28;20032;-70
2022/08/25 09:13:04;;;;;;;20.70;16.73;;;;;;;;;;5075143;28;20028;-70
2022/08/25 09:18:24;;;;;;;21.33;17.25;;;;;;;;;;5074569;28;20151;-69
2022/08/25 09:20:57;;;;;;;20.50;17.02;;;;;;;;;;5074798;28;20104;-68
2022/08/25 09:23:38;;;;;;;22.55;17.42;;;;;;;;;;5056521;28;20393;-69
2022/08/25 09:26:14;;;;;;;24.35;17.70;;;;;;;;;;5056588;28;20031;-60
2022/08/25 09:28:48;;;;;;;23.35;17.83;;;;;;;;;;5073787;28;20071;-62
2022/08/25 09:31:26;;;;;;;21.48;18.20;;;;;;;;;;5056398;28;20021;-60
2022/08/25 09:33:55;;;;;;;22.90;17.20;;;;;;;;;;5074105;28;20025;-59
2022/08/25 09:36:22;;;;;;;19.70;17.17;;;;;;;;;;5073578;28;20037;-62
2022/08/25 09:38:48;;;;;;;27.45;17.83;;;;;;;;;;5072179;28;20024;-61
2022/08/25 09:41:16;;;;;;;21.35;18.13;;;;;;;;;;5072689;28;20024;-62
2022/08/25 09:43:43;;;;;;;21.73;17.50;;;;;;;;;;5055965;28;20052;-61
2022/08/25 09:46:13;;;;;;;20.00;16.90;;;;;;;;;;5073942;28;20081;-63
2022/08/25 09:48:44;;;;;;;20.73;17.17;;;;;;;;;;5073446;28;20299;-63
2022/08/25 09:51:16;;;;;;;19.50;16.95;;;;;;;;;;5073340;28;20028;-61
2022/08/25 09:53:49;;;;;;;21.10;16.58;;;;;;;;;;5073890;28;20104;-61
2022/08/25 09:56:18;;;;;;;21.75;16.42;;;;;;;;;;5073801;28;20115;-61
2022/08/25 09:58:44;;;;;;;19.70;16.65;;;;;;;;;;5073374;28;20037;-59
2022/08/25 10:01:20;;;;;;;20.88;16.27;;;;;;;;;;5073491;28;20035;-60
2022/08/25 10:04:00;;;;;;;19.40;16.75;;;;;;;;;;5055751;28;20056;-59
2022/08/25 10:06:29;;;;;;;19.52;16.38;;;;;;;;;;5073371;28;20021;-62
2022/08/25 10:09:01;;;;;;;20.60;15.90;;;;;;;;;;5073194;28;20082;-62
2022/08/25 10:11:30;;;;;;;19.98;15.48;;;;;;;;;;5073659;28;20391;-58
2022/08/25 10:14:15;;;;;;;19.75;16.35;;;;;;;;;;5073192;28;20028;-61
2022/08/25 10:16:41;;;;;;;21.38;16.55;;;;;;;;;;5073477;28;20032;-62
2022/08/25 10:19:09;;;;;;;18.52;16.13;;;;;;;;;;5073167;28;20028;-61
2022/08/25 10:21:37;;;;;;;18.65;15.73;;;;;;;;;;5073202;28;20024;-60
2022/08/25 10:24:04;;;;;;;19.17;16.73;;;;;;;;;;5073133;28;20043;-59
2022/08/25 10:26:49;;;;;;;20.27;15.70;;;;;;;;;;5073067;28;20020;-62
2022/08/25 10:29:28;;;;;;;19.40;16.02;;;;;;;;;;5072924;28;20170;-60
2022/08/25 10:31:54;;;;;;;18.88;16.20;;;;;;;;;;5073118;28;20089;-60
2022/08/25 10:34:32;;;;;;;19.85;16.75;;;;;;;;;;5072955;28;20032;-61
2022/08/25 10:36:58;;;;;;;;;;;;;;;;;;5073446;28;20025;-61
2022/08/25 10:39:33;;;;;;;18.38;15.48;;;;;;;;;;5072764;28;19908;-60
2022/08/25 10:42:11;;;;;;;20.77;15.90;;;;;;;;;;5072715;28;20021;-60
2022/08/25 10:47:51;;;;;;;19.92;15.85;;;;;;;;;;5072710;28;20078;-61
2022/08/25 10:50:23;;;;;;;19.55;15.98;;;;;;;;;;5072686;28;20131;-57
2022/08/25 10:53:08;;;;;;;18.70;16.17;;;;;;;;;;5072890;28;20028;-60
2022/08/25 10:55:38;;;;;;;20.25;17.20;;;;;;;;;;5072675;28;20020;-61
2022/08/25 10:58:04;;;;;;;19.27;17.17;;;;;;;;;;5072176;28;20036;-61
2022/08/25 11:00:53;;;;;;;23.58;17.45;;;;;;;;;;5072455;28;20020;-62
2022/08/25 11:03:22;;;;;;;19.05;16.42;;;;;;;;;;5072606;28;20047;-61
2022/08/25 11:05:48;;;;;;;20.45;16.38;;;;;;;;;;5076730;28;20043;-63
2022/08/25 11:08:14;;;;;;;20.48;16.65;;;;;;;;;;5092321;28;20052;-62
2022/08/25 11:10:47;;;;;;;21.60;17.77;;;;;;;;;;5092178;28;20030;-63
2022/08/25 11:13:16;;;;;;;19.70;16.50;;;;;;;;;;5092075;28;20035;-63
2022/08/25 11:15:58;;;;;;;22.00;16.33;;;;;;;;;;5092199;28;20035;-62
2022/08/25 11:18:26;;;;;;;20.30;16.20;;;;;;;;;;5091989;28;20055;-63
2022/08/25 11:21:05;;;;;;;20.70;16.45;;;;;;;;;;5091718;28;20036;-63
2022/08/25 11:23:38;;;;;;;18.95;16.13;;;;;;;;;;5092553;28;20044;-62
2022/08/25 11:26:09;;;;;;;19.88;16.70;;;;;;;;;;5092569;28;20016;-60
2022/08/25 11:28:43;;;;;;;19.75;17.17;;;;;;;;;;5092029;28;20108;-63
2022/08/25 11:31:10;;;;;;;22.23;17.60;;;;;;;;;;5095252;28;20035;-59
2022/08/25 11:33:37;;;;;;;25.77;18.33;;;;;;;;;;5093504;28;20186;-58
2022/08/25 11:36:15;;;;;;;23.65;18.20;;;;;;;;;;5092918;28;20023;-60
2022/08/25 11:39:00;;;;;;;24.25;18.67;;;;;;;;;;5092303;28;20093;-60
2022/08/25 11:41:26;;;;;;;22.77;18.55;;;;;;;;;;5091994;28;20024;-62
2022/08/25 11:44:11;;;;;;;19.80;17.15;;;;;;;;;;5073814;28;20108;-61
2022/08/25 11:46:52;;;;;;;19.65;17.55;;;;;;;;;;5091741;28;20027;-65
2022/08/25 11:49:36;;;;;;;20.13;15.95;;;;;;;;;;5092119;28;20099;-53
2022/08/25 11:52:04;;;;;;;19.02;16.08;;;;;;;;;;5092142;28;20028;-57
2022/08/25 11:54:38;;;;;;;18.48;15.85;;;;;;;;;;5079825;28;20070;-54
2022/08/25 11:59:51;;;;;;;18.75;15.23;;;;;;;;;;5087983;28;20070;-57
2022/08/25 12:02:35;;;;;;;19.58;15.45;;;;;;;;;;5091562;28;20103;-58
2022/08/25 12:05:11;;;;;;;17.85;14.38;;;;;;;;;;5091652;28;20098;-49
2022/08/25 12:10:51;;;;;;;17.65;15.38;;;;;;;;;;5091627;28;20035;-57
2022/08/25 12:13:37;;;;;;;19.25;14.88;;;;;;;;;;5091479;28;20035;-55
2022/08/25 12:16:04;;;;;;;17.33;14.65;;;;;;;;;;5091988;28;20020;-58
2022/08/25 12:18:30;;;;;;;18.85;14.63;;;;;;;;;;5091591;28;20032;-56
2022/08/25 12:20:56;;;;;;;19.08;14.93;;;;;;;;;;5090490;28;20501;-56
2022/08/25 12:23:28;;;;;;;18.83;15.05;;;;;;;;;;5091509;28;20020;-51
2022/08/25 12:25:55;;;;;;;18.77;14.77;;;;;;;;;;5091521;28;20063;-56
2022/08/25 12:28:21;;;;;;;19.27;16.17;;;;;;;;;;5090881;28;20430;-56
2022/08/25 12:30:52;;;;;;;17.38;14.48;;;;;;;;;;5091637;28;20050;-56
2022/08/25 12:33:21;;;;;;;19.15;15.05;;;;;;;;;;5091870;28;20020;-54
2022/08/25 12:35:50;;;;;;;18.23;14.65;;;;;;;;;;5090639;28;20026;-55
2022/08/25 12:38:28;;;;;;;19.08;14.82;;;;;;;;;;5091279;28;20028;-56
2022/08/25 12:41:01;;;;;;;19.33;15.65;;;;;;;;;;5091217;28;20028;-53
2022/08/25 12:43:32;;;;;;;20.77;14.93;;;;;;;;;;5091230;28;20428;-56
2022/08/25 12:46:17;;;;;;;18.60;15.50;;;;;;;;;;5091145;28;20024;-58
2022/08/25 12:48:56;;;;;;;19.45;15.45;;;;;;;;;;5091040;28;20024;-53
2022/08/25 12:51:23;;;;;;;18.70;15.60;;;;;;;;;;5091362;28;20024;-57
2022/08/25 12:53:49;;;;;;;;;;;;;;;;;;5091575;28;20027;-57
2022/08/25 12:56:21;;;;;;;18.42;15.07;;;;;;;;;;5090533;28;19904;-55
2022/08/25 12:58:50;;;;;;;19.15;15.85;;;;;;;;;;5072906;28;20032;-55
2022/08/25 13:01:18;;;;;;;19.77;15.73;;;;;;;;;;5071638;28;20405;-51
2022/08/25 13:03:50;;;;;;;18.63;15.95;;;;;;;;;;5071047;28;20017;-57
2022/08/25 13:06:34;;;;;;;19.02;16.15;;;;;;;;;;5070569;28;20172;-55
2022/08/25 13:09:23;;;;;;;20.70;17.60;;;;;;;;;;5069484;28;20021;-57
2022/08/25 13:11:49;;;;;;;19.75;16.60;;;;;;;;;;5060455;28;20067;-55
2022/08/25 13:14:19;;;;;;;20.92;16.23;;;;;;;;;;5071023;28;20558;-57
2022/08/25 13:16:58;;;;;;;19.27;16.23;;;;;;;;;;5071034;28;20104;-56
2022/08/25 13:19:25;;;;;;;19.48;17.25;;;;;;;;;;5070466;28;20032;-54
2022/08/25 13:21:52;;;;;;;19.17;16.27;;;;;;;;;;5070843;28;20104;-57
2022/08/25 13:24:20;;;;;;;21.85;16.55;;;;;;;;;;5071125;28;20496;-56
2022/08/25 13:26:47;;;;;;;20.98;15.48;;;;;;;;;;5071037;28;20047;-57
2022/08/25 13:29:22;;;;;;;18.85;16.20;;;;;;;;;;5070627;28;20028;-56
2022/08/25 13:31:52;;;;;;;21.30;17.05;;;;;;;;;;5070448;28;20028;-56
2022/08/25 13:34:19;;;;;;;21.52;16.85;;;;;;;;;;5071083;28;20033;-57
2022/08/25 13:39:32;;;;;;;19.83;15.88;;;;;;;;;;5072107;28;20039;-56
2022/08/25 13:41:59;;;;;;;19.45;16.15;;;;;;;;;;5074439;28;20020;-56
2022/08/25 13:44:27;;;;;;;20.42;16.48;;;;;;;;;;5074322;28;20032;-57
2022/08/25 13:46:53;;;;;;;;;;;;;;;;;;5074770;28;20398;-57
2022/08/25 13:49:26;;;;;;;21.33;17.00;;;;;;;;;;5074019;28;19991;-55
2022/08/25 13:51:53;;;;;;;19.08;16.17;;;;;;;;;;5073870;28;20020;-53
2022/08/25 13:54:40;;;;;;;20.17;18.02;;;;;;;;;;5084328;28;20035;-53
2022/08/25 13:57:19;;;;;;;19.10;15.90;;;;;;;;;;5094196;28;20023;-58
2022/08/25 13:59:49;;;;;;;20.63;17.63;;;;;;;;;;5093833;28;20706;-57
2022/08/25 14:02:35;;;;;;;20.42;16.65;;;;;;;;;;5094040;28;20027;-55
2022/08/25 14:05:01;;;;;;;18.60;16.27;;;28.80;91.50;;;;;;5093228;28;20039;-57
2022/08/25 14:07:28;;;;;;;19.40;16.38;;;;;;;;;;5093571;28;20025;-55
2022/08/25 14:09:54;;;;;;;;;;;;;;;;;;5094193;28;20522;-58
2022/08/25 14:12:31;;;;;;;18.27;16.13;;;;;;;;;;5093773;28;19957;-56
2022/08/25 14:15:06;;;;;;;17.88;15.98;;;;;;;;;;5092332;28;20032;-55
2022/08/25 14:17:33;;;;;;;18.10;15.90;;;43.40;60.60;;;;;;5092007;28;20480;-55
2022/08/25 14:19:59;;;;;;;19.15;16.95;;;43.90;47.70;;;;;;5095721;28;20039;-53
2022/08/25 14:22:25;;;;;;;20.10;16.63;;;44.20;47.90;;;;;;5094262;28;20364;-55
2022/08/25 14:24:52;;;;;;;19.33;16.83;;;44.60;47.60;;;;;;5094461;28;20070;-56
2022/08/25 14:27:19;;;;;;;21.35;17.35;;;44.40;47.90;;;;;;5092708;28;20365;-57
2022/08/25 14:29:45;;;;;;;20.95;15.27;;;44.60;48.30;;;;;;5093933;28;20039;-58
2022/08/25 14:32:12;;;;;;;18.55;16.48;;;45.00;47.40;;;;;;5093661;28;20032;-58
2022/08/25 14:34:38;;;;;;;19.65;15.93;;;44.90;47.50;;;;;;5094164;28;20364;-55
2022/08/25 14:37:15;;;;;;;20.40;15.85;;;44.50;47.50;;;;;;5093895;28;20506;-52
2022/08/25 14:39:41;;;;;;;;;;;44.20;47.90;;;;;;5094514;28;20059;-56
2022/08/25 14:42:07;;;;;;;21.23;17.05;;;44.50;48.20;;;;;;5093689;28;20275;-57